sensor_id;sensor_type;location;lat;lon;timestamp;temperature;humidity
7920;DHT22;18778;47.610;9.776;2023-08-12T00:02:42;16.90;99.90
7920;DHT22;18778;47.610;9.776;2023-08-12T00:05:09;16.80;99.90
7920;DHT22;18778;47.610;9.776;2023-08-12T00:07:41;16.70;99.90
7920;DHT22;18778;47.610;9.776;2023-08-12T00:10:07;18.20;99.90
7920;DHT22;18778;47.610;9.776;2023-08-12T00:12:34;16.90;99.90
7920;DHT22;18778;47.610;9.776;2023-08-12T00:19:52;16.40;99.90
7920;DHT22;18778;47.610;9.776;2023-08-12T00:27:10;16.30;99.90
7920;DHT22;18778;47.610;9.776;2023-08-12T00:29:36;16.30;99.90
7920;DHT22;18778;47.610;9.776;2023-08-12T00:34:28;16.40;99.90
7920;DHT22;18778;47.610;9.776;2023-08-12T00:39:19;16.50;99.90
7920;DHT22;18778;47.610;9.776;2023-08-12T00:41:45;16.50;99.90
7920;DHT22;18778;47.610;9.776;2023-08-12T00:46:41;16.40;99.90
7920;DHT22;18778;47.610;9.776;2023-08-12T00:51:34;16.40;99.90
7920;DHT22;18778;47.610;9.776;2023-08-12T00:54:03;16.40;99.90
7920;DHT22;18778;47.610;9.776;2023-08-12T00:56:30;16.40;99.90
7920;DHT22;18778;47.610;9.776;2023-08-12T00:58:57;18.00;99.90
7920;DHT22;18778;47.610;9.776;2023-08-12T01:06:15;16.40;99.90
7920;DHT22;18778;47.610;9.776;2023-08-12T01:14:14;16.30;99.90
7920;DHT22;18778;47.610;9.776;2023-08-12T01:16:51;16.30;99.90
7920;DHT22;18778;47.610;9.776;2023-08-12T01:19:33;16.30;99.90
7920;DHT22;18778;47.610;9.776;2023-08-12T01:22:01;16.30;99.90
7920;DHT22;18778;47.610;9.776;2023-08-12T01:24:33;16.30;99.90
7920;DHT22;18778;47.610;9.776;2023-08-12T01:29:27;16.30;99.90
7920;DHT22;18778;47.610;9.776;2023-08-12T01:31:57;15.80;99.90
7920;DHT22;18778;47.610;9.776;2023-08-12T01:34:46;16.70;99.90
7920;DHT22;18778;47.610;9.776;2023-08-12T01:37:20;16.30;99.90
7920;DHT22;18778;47.610;9.776;2023-08-12T01:39:49;16.20;99.90
7920;DHT22;18778;47.610;9.776;2023-08-12T01:42:17;16.00;99.90
7920;DHT22;18778;47.610;9.776;2023-08-12T01:44:43;18.50;99.90
7920;DHT22;18778;47.610;9.776;2023-08-12T01:47:09;16.30;99.90
7920;DHT22;18778;47.610;9.776;2023-08-12T01:49:35;16.20;99.90
7920;DHT22;18778;47.610;9.776;2023-08-12T01:54:26;16.30;99.90
7920;DHT22;18778;47.610;9.776;2023-08-12T01:56:52;16.50;99.90
7920;DHT22;18778;47.610;9.776;2023-08-12T01:59:17;16.20;99.90
7920;DHT22;18778;47.610;9.776;2023-08-12T02:01:43;16.10;99.90
7920;DHT22;18778;47.610;9.776;2023-08-12T02:04:08;16.20;99.90
7920;DHT22;18778;47.610;9.776;2023-08-12T02:06:34;16.20;99.90
7920;DHT22;18778;47.610;9.776;2023-08-12T02:08:59;17.60;99.90
7920;DHT22;18778;47.610;9.776;2023-08-12T02:16:17;16.20;99.90
7920;DHT22;18778;47.610;9.776;2023-08-12T02:21:08;16.00;99.90
7920;DHT22;18778;47.610;9.776;2023-08-12T02:26:00;15.90;99.90
7920;DHT22;18778;47.610;9.776;2023-08-12T02:28:26;15.90;99.90
7920;DHT22;18778;47.610;9.776;2023-08-12T02:30:51;15.90;99.90
7920;DHT22;18778;47.610;9.776;2023-08-12T02:33:17;15.90;99.90
7920;DHT22;18778;47.610;9.776;2023-08-12T02:35:42;16.50;99.90
7920;DHT22;18778;47.610;9.776;2023-08-12T02:38:08;15.80;99.90
7920;DHT22;18778;47.610;9.776;2023-08-12T02:40:33;15.90;99.90
7920;DHT22;18778;47.610;9.776;2023-08-12T02:42:59;15.80;99.90
7920;DHT22;18778;47.610;9.776;2023-08-12T02:47:50;15.70;99.90
7920;DHT22;18778;47.610;9.776;2023-08-12T02:50:16;18.10;99.90
7920;DHT22;18778;47.610;9.776;2023-08-12T02:55:08;15.40;99.90
7920;DHT22;18778;47.610;9.776;2023-08-12T02:57:33;15.40;99.90
7920;DHT22;18778;47.610;9.776;2023-08-12T02:59:59;15.30;99.90
7920;DHT22;18778;47.610;9.776;2023-08-12T03:02:25;15.40;99.90
7920;DHT22;18778;47.610;9.776;2023-08-12T03:04:50;17.50;99.90
7920;DHT22;18778;47.610;9.776;2023-08-12T03:07:16;15.70;99.90
7920;DHT22;18778;47.610;9.776;2023-08-12T03:12:07;15.70;99.90
7920;DHT22;18778;47.610;9.776;2023-08-12T03:16:59;15.60;99.90
7920;DHT22;18778;47.610;9.776;2023-08-12T03:19:24;15.70;99.90
7920;DHT22;18778;47.610;9.776;2023-08-12T03:21:50;18.90;99.90
7920;DHT22;18778;47.610;9.776;2023-08-12T03:26:41;15.80;99.90
7920;DHT22;18778;47.610;9.776;2023-08-12T03:29:07;15.90;99.90
7920;DHT22;18778;47.610;9.776;2023-08-12T03:31:32;15.90;99.90
7920;DHT22;18778;47.610;9.776;2023-08-12T03:33:58;16.40;99.90
7920;DHT22;18778;47.610;9.776;2023-08-12T03:36:23;15.90;99.90
7920;DHT22;18778;47.610;9.776;2023-08-12T03:38:49;15.90;99.90
7920;DHT22;18778;47.610;9.776;2023-08-12T03:41:15;17.50;99.90
7920;DHT22;18778;47.610;9.776;2023-08-12T03:43:40;15.90;99.90
7920;DHT22;18778;47.610;9.776;2023-08-12T03:46:06;16.10;99.90
7920;DHT22;18778;47.610;9.776;2023-08-12T03:50:57;15.70;99.90
7920;DHT22;18778;47.610;9.776;2023-08-12T03:53:23;15.70;99.90
7920;DHT22;18778;47.610;9.776;2023-08-12T03:55:48;15.70;99.90
7920;DHT22;18778;47.610;9.776;2023-08-12T03:58:14;15.80;99.90
7920;DHT22;18778;47.610;9.776;2023-08-12T04:00:42;15.80;99.90
7920;DHT22;18778;47.610;9.776;2023-08-12T04:03:08;16.90;99.90
7920;DHT22;18778;47.610;9.776;2023-08-12T04:05:34;16.00;99.90
7920;DHT22;18778;47.610;9.776;2023-08-12T04:10:26;15.90;99.90
7920;DHT22;18778;47.610;9.776;2023-08-12T04:12:51;18.10;99.90
7920;DHT22;18778;47.610;9.776;2023-08-12T04:15:17;15.50;99.90
7920;DHT22;18778;47.610;9.776;2023-08-12T04:17:42;17.00;99.90
7920;DHT22;18778;47.610;9.776;2023-08-12T04:20:08;15.80;99.90
7920;DHT22;18778;47.610;9.776;2023-08-12T04:22:34;15.80;99.90
7920;DHT22;18778;47.610;9.776;2023-08-12T04:25:00;15.80;99.90
7920;DHT22;18778;47.610;9.776;2023-08-12T04:32:17;15.90;99.90
7920;DHT22;18778;47.610;9.776;2023-08-12T04:34:45;15.90;99.90
7920;DHT22;18778;47.610;9.776;2023-08-12T04:37:11;15.80;99.90
7920;DHT22;18778;47.610;9.776;2023-08-12T04:42:03;15.90;99.90
7920;DHT22;18778;47.610;9.776;2023-08-12T04:44:29;15.90;99.90
7920;DHT22;18778;47.610;9.776;2023-08-12T04:49:20;16.00;99.90
7920;DHT22;18778;47.610;9.776;2023-08-12T04:54:12;16.10;99.90
7920;DHT22;18778;47.610;9.776;2023-08-12T04:56:38;16.00;99.90
7920;DHT22;18778;47.610;9.776;2023-08-12T04:59:03;16.00;99.90
7920;DHT22;18778;47.610;9.776;2023-08-12T05:01:29;16.10;99.90
7920;DHT22;18778;47.610;9.776;2023-08-12T05:03:54;16.10;99.90
7920;DHT22;18778;47.610;9.776;2023-08-12T05:06:20;16.20;99.90
7920;DHT22;18778;47.610;9.776;2023-08-12T05:08:46;16.30;99.90
7920;DHT22;18778;47.610;9.776;2023-08-12T05:13:37;16.40;99.90
7920;DHT22;18778;47.610;9.776;2023-08-12T05:16:03;16.40;99.90
7920;DHT22;18778;47.610;9.776;2023-08-12T05:18:28;16.60;99.90
7920;DHT22;18778;47.610;9.776;2023-08-12T05:20:54;16.60;99.90
7920;DHT22;18778;47.610;9.776;2023-08-12T05:23:21;16.70;99.90
7920;DHT22;18778;47.610;9.776;2023-08-12T05:25:46;16.80;99.90
7920;DHT22;18778;47.610;9.776;2023-08-12T05:28:12;17.00;99.90
7920;DHT22;18778;47.610;9.776;2023-08-12T05:30:37;17.70;99.90
7920;DHT22;18778;47.610;9.776;2023-08-12T05:33:04;17.30;99.90
7920;DHT22;18778;47.610;9.776;2023-08-12T05:35:33;17.40;99.90
7920;DHT22;18778;47.610;9.776;2023-08-12T05:37:59;18.30;99.90
7920;DHT22;18778;47.610;9.776;2023-08-12T05:40:25;17.70;99.90
7920;DHT22;18778;47.610;9.776;2023-08-12T05:47:42;18.00;99.90
7920;DHT22;18778;47.610;9.776;2023-08-12T05:50:08;18.10;99.90
7920;DHT22;18778;47.610;9.776;2023-08-12T05:59:52;18.60;99.90
7920;DHT22;18778;47.610;9.776;2023-08-12T06:09:49;19.00;99.90
7920;DHT22;18778;47.610;9.776;2023-08-12T06:12:15;19.10;99.90
7920;DHT22;18778;47.610;9.776;2023-08-12T06:18:27;19.70;99.90
7920;DHT22;18778;47.610;9.776;2023-08-12T06:20:52;19.80;99.90
7920;DHT22;18778;47.610;9.776;2023-08-12T06:23:18;19.80;99.90
7920;DHT22;18778;47.610;9.776;2023-08-12T06:25:43;19.90;99.90
7920;DHT22;18778;47.610;9.776;2023-08-12T06:28:09;19.90;99.90
7920;DHT22;18778;47.610;9.776;2023-08-12T06:30:35;20.00;99.90
7920;DHT22;18778;47.610;9.776;2023-08-12T06:33:12;20.30;99.90
7920;DHT22;18778;47.610;9.776;2023-08-12T06:38:05;20.50;99.90
7920;DHT22;18778;47.610;9.776;2023-08-12T06:40:30;20.60;99.90
7920;DHT22;18778;47.610;9.776;2023-08-12T06:42:56;20.70;99.90
7920;DHT22;18778;47.610;9.776;2023-08-12T06:45:22;20.80;99.90
7920;DHT22;18778;47.610;9.776;2023-08-12T06:47:47;20.80;99.90
7920;DHT22;18778;47.610;9.776;2023-08-12T06:50:13;20.90;99.90
7920;DHT22;18778;47.610;9.776;2023-08-12T06:52:38;21.00;99.90
7920;DHT22;18778;47.610;9.776;2023-08-12T06:55:04;21.20;99.90
7920;DHT22;18778;47.610;9.776;2023-08-12T06:59:56;21.30;99.90
7920;DHT22;18778;47.610;9.776;2023-08-12T07:02:22;21.30;99.90
7920;DHT22;18778;47.610;9.776;2023-08-12T07:04:47;21.30;99.90
7920;DHT22;18778;47.610;9.776;2023-08-12T07:07:13;21.50;99.90
7920;DHT22;18778;47.610;9.776;2023-08-12T07:09:38;21.50;99.90
7920;DHT22;18778;47.610;9.776;2023-08-12T07:12:04;21.60;99.90
7920;DHT22;18778;47.610;9.776;2023-08-12T07:19:22;22.10;99.90
7920;DHT22;18778;47.610;9.776;2023-08-12T07:21:48;22.30;99.90
7920;DHT22;18778;47.610;9.776;2023-08-12T07:24:13;22.50;99.90
7920;DHT22;18778;47.610;9.776;2023-08-12T07:26:39;22.60;99.90
7920;DHT22;18778;47.610;9.776;2023-08-12T07:29:04;22.70;99.90
7920;DHT22;18778;47.610;9.776;2023-08-12T07:31:30;23.10;99.90
7920;DHT22;18778;47.610;9.776;2023-08-12T07:33:56;23.50;99.90
7920;DHT22;18778;47.610;9.776;2023-08-12T07:36:21;23.90;99.90
7920;DHT22;18778;47.610;9.776;2023-08-12T07:38:47;24.20;99.90
7920;DHT22;18778;47.610;9.776;2023-08-12T07:41:13;24.30;99.90
7920;DHT22;18778;47.610;9.776;2023-08-12T07:43:38;24.30;99.90
7920;DHT22;18778;47.610;9.776;2023-08-12T07:46:04;24.40;99.90
7920;DHT22;18778;47.610;9.776;2023-08-12T07:48:30;24.40;99.90
7920;DHT22;18778;47.610;9.776;2023-08-12T07:50:58;24.40;99.90
7920;DHT22;18778;47.610;9.776;2023-08-12T07:53:26;24.50;99.90
7920;DHT22;18778;47.610;9.776;2023-08-12T07:55:51;24.60;99.90
7920;DHT22;18778;47.610;9.776;2023-08-12T07:58:18;24.60;99.90
7920;DHT22;18778;47.610;9.776;2023-08-12T08:00:43;24.50;99.90
7920;DHT22;18778;47.610;9.776;2023-08-12T08:03:09;24.50;99.90
7920;DHT22;18778;47.610;9.776;2023-08-12T08:05:34;24.50;99.90
7920;DHT22;18778;47.610;9.776;2023-08-12T08:08:00;24.50;99.90
7920;DHT22;18778;47.610;9.776;2023-08-12T08:10:26;24.50;99.90
7920;DHT22;18778;47.610;9.776;2023-08-12T08:12:51;24.40;99.90
7920;DHT22;18778;47.610;9.776;2023-08-12T08:15:17;24.20;99.90
7920;DHT22;18778;47.610;9.776;2023-08-12T08:17:42;24.10;99.90
7920;DHT22;18778;47.610;9.776;2023-08-12T08:20:08;24.10;99.90
7920;DHT22;18778;47.610;9.776;2023-08-12T08:22:36;24.00;99.90
7920;DHT22;18778;47.610;9.776;2023-08-12T08:25:01;24.10;99.90
7920;DHT22;18778;47.610;9.776;2023-08-12T08:27:27;24.40;99.90
7920;DHT22;18778;47.610;9.776;2023-08-12T08:29:52;24.60;99.90
7920;DHT22;18778;47.610;9.776;2023-08-12T08:32:18;24.80;99.90
7920;DHT22;18778;47.610;9.776;2023-08-12T08:34:44;24.80;99.90
7920;DHT22;18778;47.610;9.776;2023-08-12T08:37:09;24.70;99.90
7920;DHT22;18778;47.610;9.776;2023-08-12T08:39:35;24.70;99.90
7920;DHT22;18778;47.610;9.776;2023-08-12T08:42:02;24.80;99.90
7920;DHT22;18778;47.610;9.776;2023-08-12T08:44:29;25.10;99.90
7920;DHT22;18778;47.610;9.776;2023-08-12T08:46:58;25.30;99.90
7920;DHT22;18778;47.610;9.776;2023-08-12T08:49:25;25.50;99.90
7920;DHT22;18778;47.610;9.776;2023-08-12T08:51:51;25.60;99.90
7920;DHT22;18778;47.610;9.776;2023-08-12T08:54:18;25.70;99.90
7920;DHT22;18778;47.610;9.776;2023-08-12T08:56:44;25.90;99.90
7920;DHT22;18778;47.610;9.776;2023-08-12T08:59:11;25.90;99.90
7920;DHT22;18778;47.610;9.776;2023-08-12T09:01:36;25.90;99.90
7920;DHT22;18778;47.610;9.776;2023-08-12T09:04:03;26.00;99.90
7920;DHT22;18778;47.610;9.776;2023-08-12T09:06:29;26.10;99.90
7920;DHT22;18778;47.610;9.776;2023-08-12T09:08:55;26.10;99.90
7920;DHT22;18778;47.610;9.776;2023-08-12T09:11:21;26.20;99.90
7920;DHT22;18778;47.610;9.776;2023-08-12T09:13:48;26.10;99.90
7920;DHT22;18778;47.610;9.776;2023-08-12T09:16:14;26.00;99.90
7920;DHT22;18778;47.610;9.776;2023-08-12T09:18:42;25.80;99.90
7920;DHT22;18778;47.610;9.776;2023-08-12T09:21:08;25.60;99.90
7920;DHT22;18778;47.610;9.776;2023-08-12T09:23:40;25.40;99.90
7920;DHT22;18778;47.610;9.776;2023-08-12T09:26:20;25.60;99.90
7920;DHT22;18778;47.610;9.776;2023-08-12T09:28:47;26.10;99.90
7920;DHT22;18778;47.610;9.776;2023-08-12T09:33:49;27.00;99.90
7920;DHT22;18778;47.610;9.776;2023-08-12T09:36:15;27.30;99.90
7920;DHT22;18778;47.610;9.776;2023-08-12T09:38:41;27.50;99.90
7920;DHT22;18778;47.610;9.776;2023-08-12T09:41:06;27.50;99.90
7920;DHT22;18778;47.610;9.776;2023-08-12T09:43:32;27.80;99.90
7920;DHT22;18778;47.610;9.776;2023-08-12T09:45:58;28.20;99.90
7920;DHT22;18778;47.610;9.776;2023-08-12T09:48:26;28.50;99.90
7920;DHT22;18778;47.610;9.776;2023-08-12T09:50:52;28.40;99.90
7920;DHT22;18778;47.610;9.776;2023-08-12T09:53:19;28.40;99.90
7920;DHT22;18778;47.610;9.776;2023-08-12T09:55:47;28.50;99.90
7920;DHT22;18778;47.610;9.776;2023-08-12T09:58:17;28.60;99.90
7920;DHT22;18778;47.610;9.776;2023-08-12T10:00:43;28.60;99.90
7920;DHT22;18778;47.610;9.776;2023-08-12T10:03:11;28.40;99.90
7920;DHT22;18778;47.610;9.776;2023-08-12T10:05:39;28.20;99.90
7920;DHT22;18778;47.610;9.776;2023-08-12T10:08:07;27.70;99.90
7920;DHT22;18778;47.610;9.776;2023-08-12T10:10:35;27.20;99.90
7920;DHT22;18778;47.610;9.776;2023-08-12T10:13:01;27.20;99.90
7920;DHT22;18778;47.610;9.776;2023-08-12T10:15:27;27.40;99.90
7920;DHT22;18778;47.610;9.776;2023-08-12T10:17:52;27.70;99.90
7920;DHT22;18778;47.610;9.776;2023-08-12T10:20:24;27.90;99.90
7920;DHT22;18778;47.610;9.776;2023-08-12T10:22:50;28.20;99.90
7920;DHT22;18778;47.610;9.776;2023-08-12T10:25:18;28.50;99.90
7920;DHT22;18778;47.610;9.776;2023-08-12T10:27:44;28.80;99.90
7920;DHT22;18778;47.610;9.776;2023-08-12T10:30:10;29.00;99.90
7920;DHT22;18778;47.610;9.776;2023-08-12T10:32:39;29.30;99.90
7920;DHT22;18778;47.610;9.776;2023-08-12T10:35:06;29.20;99.90
7920;DHT22;18778;47.610;9.776;2023-08-12T10:37:32;29.00;99.90
7920;DHT22;18778;47.610;9.776;2023-08-12T10:40:02;28.70;99.90
7920;DHT22;18778;47.610;9.776;2023-08-12T10:42:42;28.70;99.90
7920;DHT22;18778;47.610;9.776;2023-08-12T10:45:12;28.60;99.90
7920;DHT22;18778;47.610;9.776;2023-08-12T10:47:53;28.60;99.90
7920;DHT22;18778;47.610;9.776;2023-08-12T10:50:20;28.70;99.90
7920;DHT22;18778;47.610;9.776;2023-08-12T10:52:47;28.60;99.90
7920;DHT22;18778;47.610;9.776;2023-08-12T10:55:23;28.70;99.90
7920;DHT22;18778;47.610;9.776;2023-08-12T10:57:50;28.90;99.90
7920;DHT22;18778;47.610;9.776;2023-08-12T11:00:18;29.10;99.90
7920;DHT22;18778;47.610;9.776;2023-08-12T11:02:45;29.40;99.90
7920;DHT22;18778;47.610;9.776;2023-08-12T11:05:12;29.50;99.90
7920;DHT22;18778;47.610;9.776;2023-08-12T11:10:20;29.40;99.90
7920;DHT22;18778;47.610;9.776;2023-08-12T11:15:35;29.30;99.90
7920;DHT22;18778;47.610;9.776;2023-08-12T11:18:04;29.50;99.90
7920;DHT22;18778;47.610;9.776;2023-08-12T11:20:31;29.60;99.90
7920;DHT22;18778;47.610;9.776;2023-08-12T11:22:57;29.80;99.90
7920;DHT22;18778;47.610;9.776;2023-08-12T11:25:27;29.80;99.90
7920;DHT22;18778;47.610;9.776;2023-08-12T11:27:53;29.70;99.90
7920;DHT22;18778;47.610;9.776;2023-08-12T11:30:20;29.60;99.90
7920;DHT22;18778;47.610;9.776;2023-08-12T11:32:47;29.40;99.90
7920;DHT22;18778;47.610;9.776;2023-08-12T11:35:15;29.10;99.90
7920;DHT22;18778;47.610;9.776;2023-08-12T11:37:43;28.90;99.90
7920;DHT22;18778;47.610;9.776;2023-08-12T11:40:11;28.70;99.90
7920;DHT22;18778;47.610;9.776;2023-08-12T11:42:41;28.30;99.90
7920;DHT22;18778;47.610;9.776;2023-08-12T11:45:07;27.90;99.90
7920;DHT22;18778;47.610;9.776;2023-08-12T11:47:34;27.40;99.90
7920;DHT22;18778;47.610;9.776;2023-08-12T11:50:05;27.40;99.90
7920;DHT22;18778;47.610;9.776;2023-08-12T11:52:31;27.20;99.90
7920;DHT22;18778;47.610;9.776;2023-08-12T11:54:58;27.10;99.90
7920;DHT22;18778;47.610;9.776;2023-08-12T11:57:24;27.10;99.90
7920;DHT22;18778;47.610;9.776;2023-08-12T11:59:50;27.50;99.90
7920;DHT22;18778;47.610;9.776;2023-08-12T12:02:16;27.70;99.90
7920;DHT22;18778;47.610;9.776;2023-08-12T12:04:44;27.80;99.90
7920;DHT22;18778;47.610;9.776;2023-08-12T12:07:24;27.60;99.90
7920;DHT22;18778;47.610;9.776;2023-08-12T12:09:54;27.50;99.90
7920;DHT22;18778;47.610;9.776;2023-08-12T12:12:23;27.30;99.90
7920;DHT22;18778;47.610;9.776;2023-08-12T12:14:52;27.20;99.90
7920;DHT22;18778;47.610;9.776;2023-08-12T12:17:23;27.10;99.90
7920;DHT22;18778;47.610;9.776;2023-08-12T12:19:54;27.00;99.90
7920;DHT22;18778;47.610;9.776;2023-08-12T12:22:20;26.90;99.90
7920;DHT22;18778;47.610;9.776;2023-08-12T12:24:46;26.90;99.90
7920;DHT22;18778;47.610;9.776;2023-08-12T12:27:13;26.80;99.90
7920;DHT22;18778;47.610;9.776;2023-08-12T12:29:38;26.70;99.90
7920;DHT22;18778;47.610;9.776;2023-08-12T12:32:04;26.70;99.90
7920;DHT22;18778;47.610;9.776;2023-08-12T12:34:30;26.90;99.90
7920;DHT22;18778;47.610;9.776;2023-08-12T12:36:55;27.30;99.90
7920;DHT22;18778;47.610;9.776;2023-08-12T12:39:21;27.60;99.90
7920;DHT22;18778;47.610;9.776;2023-08-12T12:41:48;28.10;99.90
7920;DHT22;18778;47.610;9.776;2023-08-12T12:44:14;28.10;99.90
7920;DHT22;18778;47.610;9.776;2023-08-12T12:46:39;28.10;99.90
7920;DHT22;18778;47.610;9.776;2023-08-12T12:49:05;28.10;99.90
7920;DHT22;18778;47.610;9.776;2023-08-12T12:51:30;28.30;99.90
7920;DHT22;18778;47.610;9.776;2023-08-12T12:53:56;28.40;99.90
7920;DHT22;18778;47.610;9.776;2023-08-12T12:56:22;28.70;99.90
7920;DHT22;18778;47.610;9.776;2023-08-12T12:58:48;28.90;99.90
7920;DHT22;18778;47.610;9.776;2023-08-12T13:01:13;29.20;99.90
7920;DHT22;18778;47.610;9.776;2023-08-12T13:03:39;29.30;99.90
7920;DHT22;18778;47.610;9.776;2023-08-12T13:06:05;29.20;99.90
7920;DHT22;18778;47.610;9.776;2023-08-12T13:08:31;29.00;99.90
7920;DHT22;18778;47.610;9.776;2023-08-12T13:10:57;29.00;99.90
7920;DHT22;18778;47.610;9.776;2023-08-12T13:13:23;29.00;99.90
7920;DHT22;18778;47.610;9.776;2023-08-12T13:15:49;28.90;99.90
7920;DHT22;18778;47.610;9.776;2023-08-12T13:18:14;29.00;99.90
7920;DHT22;18778;47.610;9.776;2023-08-12T13:20:40;29.00;99.90
7920;DHT22;18778;47.610;9.776;2023-08-12T13:23:06;28.90;99.90
7920;DHT22;18778;47.610;9.776;2023-08-12T13:25:33;28.90;99.90
7920;DHT22;18778;47.610;9.776;2023-08-12T13:28:03;29.00;99.90
7920;DHT22;18778;47.610;9.776;2023-08-12T13:30:29;28.90;99.90
7920;DHT22;18778;47.610;9.776;2023-08-12T13:32:55;28.90;99.90
7920;DHT22;18778;47.610;9.776;2023-08-12T13:35:22;28.80;99.90
7920;DHT22;18778;47.610;9.776;2023-08-12T13:37:49;28.80;99.90
7920;DHT22;18778;47.610;9.776;2023-08-12T13:40:16;29.00;99.90
7920;DHT22;18778;47.610;9.776;2023-08-12T13:42:42;29.40;99.90
7920;DHT22;18778;47.610;9.776;2023-08-12T13:45:09;29.60;99.90
7920;DHT22;18778;47.610;9.776;2023-08-12T13:47:35;29.80;99.90
7920;DHT22;18778;47.610;9.776;2023-08-12T13:50:00;29.90;99.90
7920;DHT22;18778;47.610;9.776;2023-08-12T13:52:26;30.00;99.90
7920;DHT22;18778;47.610;9.776;2023-08-12T13:54:51;29.80;99.90
7920;DHT22;18778;47.610;9.776;2023-08-12T13:57:17;29.60;99.90
7920;DHT22;18778;47.610;9.776;2023-08-12T13:59:43;29.70;99.90
7920;DHT22;18778;47.610;9.776;2023-08-12T14:02:13;29.70;99.90
7920;DHT22;18778;47.610;9.776;2023-08-12T14:04:38;29.60;99.90
7920;DHT22;18778;47.610;9.776;2023-08-12T14:07:04;29.40;99.90
7920;DHT22;18778;47.610;9.776;2023-08-12T14:09:30;29.50;99.90
7920;DHT22;18778;47.610;9.776;2023-08-12T14:11:57;29.40;99.90
7920;DHT22;18778;47.610;9.776;2023-08-12T14:14:24;29.10;99.90
7920;DHT22;18778;47.610;9.776;2023-08-12T14:16:50;29.00;99.90
7920;DHT22;18778;47.610;9.776;2023-08-12T14:19:16;29.10;99.90
7920;DHT22;18778;47.610;9.776;2023-08-12T14:21:42;29.40;99.90
7920;DHT22;18778;47.610;9.776;2023-08-12T14:24:08;30.00;99.90
7920;DHT22;18778;47.610;9.776;2023-08-12T14:26:34;30.40;99.90
7920;DHT22;18778;47.610;9.776;2023-08-12T14:29:00;30.90;99.90
7920;DHT22;18778;47.610;9.776;2023-08-12T14:31:25;31.40;99.90
7920;DHT22;18778;47.610;9.776;2023-08-12T14:33:51;31.30;99.90
7920;DHT22;18778;47.610;9.776;2023-08-12T14:36:18;31.50;99.90
7920;DHT22;18778;47.610;9.776;2023-08-12T14:38:43;31.90;99.90
7920;DHT22;18778;47.610;9.776;2023-08-12T14:41:09;32.00;99.90
7920;DHT22;18778;47.610;9.776;2023-08-12T14:43:34;32.00;99.90
7920;DHT22;18778;47.610;9.776;2023-08-12T14:46:02;31.90;99.90
7920;DHT22;18778;47.610;9.776;2023-08-12T14:48:28;31.70;99.90
7920;DHT22;18778;47.610;9.776;2023-08-12T14:50:54;31.50;99.90
7920;DHT22;18778;47.610;9.776;2023-08-12T14:53:20;31.30;99.90
7920;DHT22;18778;47.610;9.776;2023-08-12T14:55:45;31.50;99.90
7920;DHT22;18778;47.610;9.776;2023-08-12T14:58:11;31.90;99.90
7920;DHT22;18778;47.610;9.776;2023-08-12T15:00:37;32.00;99.90
7920;DHT22;18778;47.610;9.776;2023-08-12T15:03:02;32.50;99.90
7920;DHT22;18778;47.610;9.776;2023-08-12T15:05:29;32.80;99.90
7920;DHT22;18778;47.610;9.776;2023-08-12T15:07:54;32.60;99.50
7920;DHT22;18778;47.610;9.776;2023-08-12T15:10:20;32.40;99.90
7920;DHT22;18778;47.610;9.776;2023-08-12T15:12:45;32.10;99.40
7920;DHT22;18778;47.610;9.776;2023-08-12T15:15:11;31.70;99.10
7920;DHT22;18778;47.610;9.776;2023-08-12T15:17:36;31.60;99.90
7920;DHT22;18778;47.610;9.776;2023-08-12T15:20:02;31.60;99.90
7920;DHT22;18778;47.610;9.776;2023-08-12T15:22:28;31.60;99.90
7920;DHT22;18778;47.610;9.776;2023-08-12T15:24:53;31.50;99.90
7920;DHT22;18778;47.610;9.776;2023-08-12T15:27:19;31.70;99.90
7920;DHT22;18778;47.610;9.776;2023-08-12T15:29:44;31.90;99.90
7920;DHT22;18778;47.610;9.776;2023-08-12T15:32:10;31.90;99.90
7920;DHT22;18778;47.610;9.776;2023-08-12T15:34:36;31.90;98.50
7920;DHT22;18778;47.610;9.776;2023-08-12T15:37:02;31.80;98.90
7920;DHT22;18778;47.610;9.776;2023-08-12T15:39:29;31.60;98.60
7920;DHT22;18778;47.610;9.776;2023-08-12T15:41:54;31.40;98.20
7920;DHT22;18778;47.610;9.776;2023-08-12T15:44:20;31.20;98.30
7920;DHT22;18778;47.610;9.776;2023-08-12T15:46:45;31.10;99.70
7920;DHT22;18778;47.610;9.776;2023-08-12T15:49:11;31.00;99.60
7920;DHT22;18778;47.610;9.776;2023-08-12T15:51:40;31.00;99.00
7920;DHT22;18778;47.610;9.776;2023-08-12T15:54:07;31.10;99.90
7920;DHT22;18778;47.610;9.776;2023-08-12T15:56:32;31.10;99.00
7920;DHT22;18778;47.610;9.776;2023-08-12T15:59:01;31.10;99.50
7920;DHT22;18778;47.610;9.776;2023-08-12T16:01:27;31.40;99.80
7920;DHT22;18778;47.610;9.776;2023-08-12T16:03:52;31.90;99.90
7920;DHT22;18778;47.610;9.776;2023-08-12T16:06:18;32.30;97.60
7920;DHT22;18778;47.610;9.776;2023-08-12T16:08:43;32.80;97.50
7920;DHT22;18778;47.610;9.776;2023-08-12T16:11:09;33.00;97.50
7920;DHT22;18778;47.610;9.776;2023-08-12T16:13:35;33.30;96.70
7920;DHT22;18778;47.610;9.776;2023-08-12T16:16:00;33.80;96.70
7920;DHT22;18778;47.610;9.776;2023-08-12T16:18:26;34.30;96.10
7920;DHT22;18778;47.610;9.776;2023-08-12T16:20:52;34.50;92.80
7920;DHT22;18778;47.610;9.776;2023-08-12T16:23:17;33.80;93.70
7920;DHT22;18778;47.610;9.776;2023-08-12T16:25:43;32.90;94.40
7920;DHT22;18778;47.610;9.776;2023-08-12T16:28:09;31.90;97.40
7920;DHT22;18778;47.610;9.776;2023-08-12T16:30:34;31.10;98.60
7920;DHT22;18778;47.610;9.776;2023-08-12T16:33:00;30.50;99.90
7920;DHT22;18778;47.610;9.776;2023-08-12T16:35:26;29.80;99.90
7920;DHT22;18778;47.610;9.776;2023-08-12T16:37:51;29.00;99.90
7920;DHT22;18778;47.610;9.776;2023-08-12T16:40:17;29.00;99.90
7920;DHT22;18778;47.610;9.776;2023-08-12T16:42:43;28.70;99.90
7920;DHT22;18778;47.610;9.776;2023-08-12T16:45:11;28.40;99.90
7920;DHT22;18778;47.610;9.776;2023-08-12T16:47:37;28.20;99.90
7920;DHT22;18778;47.610;9.776;2023-08-12T16:50:03;28.20;99.90
7920;DHT22;18778;47.610;9.776;2023-08-12T16:52:28;28.10;99.90
7920;DHT22;18778;47.610;9.776;2023-08-12T16:54:54;28.10;99.90
7920;DHT22;18778;47.610;9.776;2023-08-12T16:57:20;28.00;99.90
7920;DHT22;18778;47.610;9.776;2023-08-12T16:59:45;28.00;99.90
7920;DHT22;18778;47.610;9.776;2023-08-12T17:02:11;28.00;99.90
7920;DHT22;18778;47.610;9.776;2023-08-12T17:04:36;27.90;99.90
7920;DHT22;18778;47.610;9.776;2023-08-12T17:07:02;27.90;99.90
7920;DHT22;18778;47.610;9.776;2023-08-12T17:09:27;27.90;99.90
7920;DHT22;18778;47.610;9.776;2023-08-12T17:11:55;27.80;99.90
7920;DHT22;18778;47.610;9.776;2023-08-12T17:14:20;27.70;99.90
7920;DHT22;18778;47.610;9.776;2023-08-12T17:16:46;27.60;99.90
7920;DHT22;18778;47.610;9.776;2023-08-12T17:19:12;27.50;99.90
7920;DHT22;18778;47.610;9.776;2023-08-12T17:21:37;27.40;99.90
7920;DHT22;18778;47.610;9.776;2023-08-12T17:24:03;27.30;99.90
7920;DHT22;18778;47.610;9.776;2023-08-12T17:26:29;27.20;99.90
7920;DHT22;18778;47.610;9.776;2023-08-12T17:28:54;27.10;99.90
7920;DHT22;18778;47.610;9.776;2023-08-12T17:31:20;27.10;99.90
7920;DHT22;18778;47.610;9.776;2023-08-12T17:33:47;27.10;99.90
7920;DHT22;18778;47.610;9.776;2023-08-12T17:36:12;27.10;99.90
7920;DHT22;18778;47.610;9.776;2023-08-12T17:38:38;27.00;99.90